Laukaa, Finland
Kieli:  Suomi
CurCond
Päivitetty02/07/2022 14:42 
 

Lähistön Lentoasemien Säätiloja:

 

EFJY - Jyvaskyla (mil/C,) Finland
Etäisyys Sääasemalta: PKo 21km
Päivitetty: 02/07/2022 14:20
Selkeätä
Selkeätä
 Tuulen suunta Ka
Tuuli: Ka 19 km/h
Lämpötila: 27°C
Heat Index: 27°C
Kastepiste: 15°C
Ilmankosteus: 48%
Ilmanpaine: 1018 hPa
Yhteenveto: Selkeätä
Näkyvyys: Enemmän Kuin 10 km
2022/07/02 11:20 EFJY 021120Z AUTO 14010KT CAVOK 27/15 Q1018
EFHA - Halli (fin-Afb), Finland
Etäisyys Sääasemalta: Lo 56km
Päivitetty: 02/07/2022 14:20
Selkeätä
Selkeätä
 Tuulen suunta EKa
Tuuli: EKa 17 km/h
Lämpötila: 28°C
Heat Index: 28°C
Kastepiste: 14°C
Ilmankosteus: 42%
Ilmanpaine: 1017 hPa
Yhteenveto: Selkeätä
Näkyvyys: Enemmän Kuin 10 km
2022/07/02 11:20 EFHA 021120Z AUTO 15009KT 130V200 CAVOK 28/14 Q1017
EFMI - Mikkeli, Finland
Etäisyys Sääasemalta: IKa 105km
Päivitetty: 02/07/2022 14:20
Selkeätä
Selkeätä
 Tuulen suunta EKa
Tuuli: EKa 11 km/h
Lämpötila: 28°C
Heat Index: 28°C
Kastepiste: 16°C
Ilmankosteus: 48%
Ilmanpaine: 1019 hPa
Yhteenveto: Selkeätä
Näkyvyys: Enemmän Kuin 10 km
2022/07/02 11:20 EFMI 021120Z AUTO 16006KT 120V200 CAVOK 28/16 Q1019
 
EFTP - Tampere/Pirkkala, Finland
Etäisyys Sääasemalta: Lo 135km
Päivitetty: 02/07/2022 14:20
Lähistöllä Sadekuuroja, Ukkospilviä
Lähistöllä Sadekuuroja, Ukkospilviä
 Tuulen suunta EKa
Tuuli: EKa 28 km/h
Lämpötila: 29°C
Heat Index: 29°C
Kastepiste: 18°C
Ilmankosteus: 51%
Ilmanpaine: 1016 hPa
Yhteenveto: Lähistöllä Sadekuuroja
Pilvisyys: Ukkospilviä
Näkyvyys: 10 km
Pilvisyystiedot: Joitain Pilviä 1433 m
2022/07/02 11:20 EFTP 021120Z AUTO 16015KT 130V210 9999 VCSH FEW047 //////CB 29/18 Q1016
EFKU - Kuopio (mil/Civ), Finland
Etäisyys Sääasemalta: Ko 146km
Päivitetty: 02/07/2022 14:20
Selkeätä
Selkeätä
 Tuulen suunta E
Tuuli: E 19 km/h
Lämpötila: 28°C
Heat Index: 28°C
Kastepiste: 14°C
Ilmankosteus: 42%
Ilmanpaine: 1019 hPa
Yhteenveto: Selkeätä
Näkyvyys: Enemmän Kuin 10 km
2022/07/02 11:20 EFKU 021120Z AUTO 19010KT 160V220 CAVOK 28/14 Q1019
EFSI - Seinajoki-Ilmajo, Finland
Etäisyys Sääasemalta: LLu 149km
Päivitetty: 02/07/2022 14:20
Selkeätä
Selkeätä
 Tuulen suunta EKa
Tuuli: EKa 28 km/h
Lämpötila: 27°C
Heat Index: 28°C
Kastepiste: 18°C
Ilmankosteus: 58%
Ilmanpaine: 1015 hPa
Yhteenveto: Selkeätä
Näkyvyys: Enemmän Kuin 10 km
2022/07/02 11:20 EFSI 021120Z AUTO 15015KT CAVOK 27/18 Q1015